sensor_id;sensor_type;location;lat;lon;timestamp;temperature;humidity
16287;DHT22;8251;53.568;10.018;2023-04-07T00:01:46;10.50;49.60
16287;DHT22;8251;53.568;10.018;2023-04-07T00:04:13;10.50;49.70
16287;DHT22;8251;53.568;10.018;2023-04-07T00:06:40;10.50;49.60
16287;DHT22;8251;53.568;10.018;2023-04-07T00:09:08;10.50;49.70
16287;DHT22;8251;53.568;10.018;2023-04-07T00:11:35;10.50;50.40
16287;DHT22;8251;53.568;10.018;2023-04-07T00:14:02;10.50;49.80
16287;DHT22;8251;53.568;10.018;2023-04-07T00:16:30;10.50;50.00
16287;DHT22;8251;53.568;10.018;2023-04-07T00:18:57;10.40;49.90
16287;DHT22;8251;53.568;10.018;2023-04-07T00:21:24;10.30;50.00
16287;DHT22;8251;53.568;10.018;2023-04-07T00:23:51;10.30;50.00
16287;DHT22;8251;53.568;10.018;2023-04-07T00:26:18;10.30;49.90
16287;DHT22;8251;53.568;10.018;2023-04-07T00:28:45;10.30;50.00
16287;DHT22;8251;53.568;10.018;2023-04-07T00:31:12;10.30;50.10
16287;DHT22;8251;53.568;10.018;2023-04-07T00:33:41;10.30;50.10
16287;DHT22;8251;53.568;10.018;2023-04-07T00:36:08;10.30;50.10
16287;DHT22;8251;53.568;10.018;2023-04-07T00:38:35;10.20;50.10
16287;DHT22;8251;53.568;10.018;2023-04-07T00:41:02;10.20;50.30
16287;DHT22;8251;53.568;10.018;2023-04-07T00:43:29;10.20;50.40
16287;DHT22;8251;53.568;10.018;2023-04-07T00:45:56;10.20;50.50
16287;DHT22;8251;53.568;10.018;2023-04-07T00:48:23;10.00;50.60
16287;DHT22;8251;53.568;10.018;2023-04-07T00:50:51;9.90;50.80
16287;DHT22;8251;53.568;10.018;2023-04-07T00:53:18;9.90;51.60
16287;DHT22;8251;53.568;10.018;2023-04-07T00:55:45;10.00;50.90
16287;DHT22;8251;53.568;10.018;2023-04-07T00:58:12;10.00;50.90
16287;DHT22;8251;53.568;10.018;2023-04-07T01:00:43;9.90;50.80
16287;DHT22;8251;53.568;10.018;2023-04-07T01:03:17;9.90;50.70
16287;DHT22;8251;53.568;10.018;2023-04-07T01:05:52;10.00;50.70
16287;DHT22;8251;53.568;10.018;2023-04-07T01:08:25;10.00;50.80
16287;DHT22;8251;53.568;10.018;2023-04-07T01:11:01;10.00;50.80
16287;DHT22;8251;53.568;10.018;2023-04-07T01:13:31;10.00;50.80
16287;DHT22;8251;53.568;10.018;2023-04-07T01:16:04;9.90;50.80
16287;DHT22;8251;53.568;10.018;2023-04-07T01:18:32;9.90;51.00
16287;DHT22;8251;53.568;10.018;2023-04-07T01:21:03;9.80;51.00
16287;DHT22;8251;53.568;10.018;2023-04-07T01:23:46;9.90;51.70
16287;DHT22;8251;53.568;10.018;2023-04-07T01:26:19;9.90;51.10
16287;DHT22;8251;53.568;10.018;2023-04-07T01:29:03;9.90;51.10
16287;DHT22;8251;53.568;10.018;2023-04-07T01:31:34;9.90;51.20
16287;DHT22;8251;53.568;10.018;2023-04-07T01:34:03;9.80;51.20
16287;DHT22;8251;53.568;10.018;2023-04-07T01:36:31;9.80;51.30
16287;DHT22;8251;53.568;10.018;2023-04-07T01:38:59;9.80;51.20
16287;DHT22;8251;53.568;10.018;2023-04-07T01:41:27;9.80;51.30
16287;DHT22;8251;53.568;10.018;2023-04-07T01:43:54;9.70;51.30
16287;DHT22;8251;53.568;10.018;2023-04-07T01:46:22;9.70;51.30
16287;DHT22;8251;53.568;10.018;2023-04-07T01:48:50;9.70;51.40
16287;DHT22;8251;53.568;10.018;2023-04-07T01:51:20;9.70;51.40
16287;DHT22;8251;53.568;10.018;2023-04-07T01:53:48;9.70;51.50
16287;DHT22;8251;53.568;10.018;2023-04-07T01:56:18;9.60;51.50
16287;DHT22;8251;53.568;10.018;2023-04-07T01:58:45;9.60;51.50
16287;DHT22;8251;53.568;10.018;2023-04-07T02:01:13;9.60;51.60
16287;DHT22;8251;53.568;10.018;2023-04-07T02:03:43;9.60;51.70
16287;DHT22;8251;53.568;10.018;2023-04-07T02:06:16;9.50;51.70
16287;DHT22;8251;53.568;10.018;2023-04-07T02:08:53;9.60;52.00
16287;DHT22;8251;53.568;10.018;2023-04-07T02:11:21;9.50;51.90
16287;DHT22;8251;53.568;10.018;2023-04-07T02:13:51;9.40;51.90
16287;DHT22;8251;53.568;10.018;2023-04-07T02:16:19;9.40;52.00
16287;DHT22;8251;53.568;10.018;2023-04-07T02:18:47;9.40;52.60
16287;DHT22;8251;53.568;10.018;2023-04-07T02:21:17;9.40;52.10
16287;DHT22;8251;53.568;10.018;2023-04-07T02:23:45;9.40;52.30
16287;DHT22;8251;53.568;10.018;2023-04-07T02:26:13;9.30;52.20
16287;DHT22;8251;53.568;10.018;2023-04-07T02:28:39;9.30;52.10
16287;DHT22;8251;53.568;10.018;2023-04-07T02:31:06;9.40;52.00
16287;DHT22;8251;53.568;10.018;2023-04-07T02:33:33;9.30;52.00
16287;DHT22;8251;53.568;10.018;2023-04-07T02:36:00;9.30;52.10
16287;DHT22;8251;53.568;10.018;2023-04-07T02:38:29;9.30;52.10
16287;DHT22;8251;53.568;10.018;2023-04-07T02:40:55;9.20;52.20
16287;DHT22;8251;53.568;10.018;2023-04-07T02:43:23;9.20;52.20
16287;DHT22;8251;53.568;10.018;2023-04-07T02:45:50;9.20;52.30
16287;DHT22;8251;53.568;10.018;2023-04-07T02:48:17;9.20;52.30
16287;DHT22;8251;53.568;10.018;2023-04-07T02:50:43;9.20;52.30
16287;DHT22;8251;53.568;10.018;2023-04-07T02:53:10;9.10;52.50
16287;DHT22;8251;53.568;10.018;2023-04-07T02:55:39;9.10;52.50
16287;DHT22;8251;53.568;10.018;2023-04-07T03:01:56;9.10;52.50
16287;DHT22;8251;53.568;10.018;2023-04-07T03:04:23;9.00;52.50
16287;DHT22;8251;53.568;10.018;2023-04-07T03:06:50;9.00;52.50
16287;DHT22;8251;53.568;10.018;2023-04-07T03:09:16;8.90;52.60
16287;DHT22;8251;53.568;10.018;2023-04-07T03:11:44;9.00;52.70
16287;DHT22;8251;53.568;10.018;2023-04-07T03:14:11;9.00;52.70
16287;DHT22;8251;53.568;10.018;2023-04-07T03:16:38;9.00;52.80
16287;DHT22;8251;53.568;10.018;2023-04-07T03:19:05;9.00;52.60
16287;DHT22;8251;53.568;10.018;2023-04-07T03:21:33;9.00;52.60
16287;DHT22;8251;53.568;10.018;2023-04-07T03:24:00;9.00;52.60
16287;DHT22;8251;53.568;10.018;2023-04-07T03:26:27;9.00;52.60
16287;DHT22;8251;53.568;10.018;2023-04-07T03:28:55;8.90;52.50
16287;DHT22;8251;53.568;10.018;2023-04-07T03:31:22;8.90;52.60
16287;DHT22;8251;53.568;10.018;2023-04-07T03:33:49;8.90;52.60
16287;DHT22;8251;53.568;10.018;2023-04-07T03:36:17;9.00;52.50
16287;DHT22;8251;53.568;10.018;2023-04-07T03:38:46;9.00;52.50
16287;DHT22;8251;53.568;10.018;2023-04-07T03:41:13;8.90;52.50
16287;DHT22;8251;53.568;10.018;2023-04-07T03:43:40;9.00;52.40
16287;DHT22;8251;53.568;10.018;2023-04-07T03:46:08;8.90;52.40
16287;DHT22;8251;53.568;10.018;2023-04-07T03:48:35;9.00;52.60
16287;DHT22;8251;53.568;10.018;2023-04-07T03:51:02;9.00;52.40
16287;DHT22;8251;53.568;10.018;2023-04-07T03:53:29;9.00;52.20
16287;DHT22;8251;53.568;10.018;2023-04-07T03:55:56;8.90;52.20
16287;DHT22;8251;53.568;10.018;2023-04-07T03:58:23;8.90;52.20
16287;DHT22;8251;53.568;10.018;2023-04-07T04:00:50;8.90;52.20
16287;DHT22;8251;53.568;10.018;2023-04-07T04:03:19;8.90;52.10
16287;DHT22;8251;53.568;10.018;2023-04-07T04:05:45;8.90;52.10
16287;DHT22;8251;53.568;10.018;2023-04-07T04:08:12;8.90;52.00
16287;DHT22;8251;53.568;10.018;2023-04-07T04:10:40;8.80;52.00
16287;DHT22;8251;53.568;10.018;2023-04-07T04:13:07;8.80;52.10
16287;DHT22;8251;53.568;10.018;2023-04-07T04:15:34;8.80;52.10
16287;DHT22;8251;53.568;10.018;2023-04-07T04:18:01;8.70;52.70
16287;DHT22;8251;53.568;10.018;2023-04-07T04:20:30;8.70;52.10
16287;DHT22;8251;53.568;10.018;2023-04-07T04:22:57;8.70;52.10
16287;DHT22;8251;53.568;10.018;2023-04-07T04:25:24;8.80;52.20
16287;DHT22;8251;53.568;10.018;2023-04-07T04:27:51;8.80;52.10
16287;DHT22;8251;53.568;10.018;2023-04-07T04:30:17;8.80;52.20
16287;DHT22;8251;53.568;10.018;2023-04-07T04:32:45;8.80;52.20
16287;DHT22;8251;53.568;10.018;2023-04-07T04:35:12;8.80;52.10
16287;DHT22;8251;53.568;10.018;2023-04-07T04:37:40;8.70;52.10
16287;DHT22;8251;53.568;10.018;2023-04-07T04:40:08;8.70;52.10
16287;DHT22;8251;53.568;10.018;2023-04-07T04:42:36;8.70;52.20
16287;DHT22;8251;53.568;10.018;2023-04-07T04:45:03;8.60;52.20
16287;DHT22;8251;53.568;10.018;2023-04-07T04:47:31;8.60;52.30
16287;DHT22;8251;53.568;10.018;2023-04-07T04:49:58;8.60;52.20
16287;DHT22;8251;53.568;10.018;2023-04-07T04:52:25;8.60;52.20
16287;DHT22;8251;53.568;10.018;2023-04-07T04:54:54;8.60;52.30
16287;DHT22;8251;53.568;10.018;2023-04-07T04:57:21;8.60;52.30
16287;DHT22;8251;53.568;10.018;2023-04-07T04:59:48;8.60;52.30
16287;DHT22;8251;53.568;10.018;2023-04-07T05:02:15;8.60;52.20
16287;DHT22;8251;53.568;10.018;2023-04-07T05:04:42;8.60;52.90
16287;DHT22;8251;53.568;10.018;2023-04-07T05:07:09;8.60;52.40
16287;DHT22;8251;53.568;10.018;2023-04-07T05:09:36;8.60;52.30
16287;DHT22;8251;53.568;10.018;2023-04-07T05:12:04;8.60;52.40
16287;DHT22;8251;53.568;10.018;2023-04-07T05:14:31;8.60;52.30
16287;DHT22;8251;53.568;10.018;2023-04-07T05:16:58;8.60;52.40
16287;DHT22;8251;53.568;10.018;2023-04-07T05:19:26;8.60;52.30
16287;DHT22;8251;53.568;10.018;2023-04-07T05:21:54;8.70;52.40
16287;DHT22;8251;53.568;10.018;2023-04-07T05:24:21;8.70;52.50
16287;DHT22;8251;53.568;10.018;2023-04-07T05:26:48;8.70;52.30
16287;DHT22;8251;53.568;10.018;2023-04-07T05:29:16;8.80;52.30
16287;DHT22;8251;53.568;10.018;2023-04-07T05:31:43;8.80;52.00
16287;DHT22;8251;53.568;10.018;2023-04-07T05:34:10;8.80;52.00
16287;DHT22;8251;53.568;10.018;2023-04-07T05:36:37;8.80;51.90
16287;DHT22;8251;53.568;10.018;2023-04-07T05:39:04;8.80;51.90
16287;DHT22;8251;53.568;10.018;2023-04-07T05:41:30;8.80;52.00
16287;DHT22;8251;53.568;10.018;2023-04-07T05:43:57;8.80;52.10
16287;DHT22;8251;53.568;10.018;2023-04-07T05:46:26;8.80;52.10
16287;DHT22;8251;53.568;10.018;2023-04-07T05:48:53;8.80;52.00
16287;DHT22;8251;53.568;10.018;2023-04-07T05:51:21;8.90;52.00
16287;DHT22;8251;53.568;10.018;2023-04-07T05:53:48;8.90;51.90
16287;DHT22;8251;53.568;10.018;2023-04-07T05:56:15;9.00;51.70
16287;DHT22;8251;53.568;10.018;2023-04-07T05:58:41;9.00;51.60
16287;DHT22;8251;53.568;10.018;2023-04-07T06:01:08;9.00;51.50
16287;DHT22;8251;53.568;10.018;2023-04-07T06:03:37;9.00;51.60
16287;DHT22;8251;53.568;10.018;2023-04-07T06:06:05;9.00;51.40
16287;DHT22;8251;53.568;10.018;2023-04-07T06:08:32;9.00;51.50
16287;DHT22;8251;53.568;10.018;2023-04-07T06:10:59;9.20;51.60
16287;DHT22;8251;53.568;10.018;2023-04-07T06:13:26;9.20;51.40
16287;DHT22;8251;53.568;10.018;2023-04-07T06:15:54;9.40;51.10
16287;DHT22;8251;53.568;10.018;2023-04-07T06:18:21;9.60;50.80
16287;DHT22;8251;53.568;10.018;2023-04-07T06:20:49;9.80;50.20
16287;DHT22;8251;53.568;10.018;2023-04-07T06:23:16;10.10;49.80
16287;DHT22;8251;53.568;10.018;2023-04-07T06:25:43;10.50;49.30
16287;DHT22;8251;53.568;10.018;2023-04-07T06:28:10;11.00;48.30
16287;DHT22;8251;53.568;10.018;2023-04-07T06:30:42;11.50;46.90
16287;DHT22;8251;53.568;10.018;2023-04-07T06:33:09;12.00;46.10
16287;DHT22;8251;53.568;10.018;2023-04-07T06:35:37;12.60;45.00
16287;DHT22;8251;53.568;10.018;2023-04-07T06:38:06;13.30;44.70
16287;DHT22;8251;53.568;10.018;2023-04-07T06:40:33;14.30;43.10
16287;DHT22;8251;53.568;10.018;2023-04-07T06:42:59;15.40;41.00
16287;DHT22;8251;53.568;10.018;2023-04-07T06:45:28;16.60;38.50
16287;DHT22;8251;53.568;10.018;2023-04-07T06:47:55;17.80;36.00
16287;DHT22;8251;53.568;10.018;2023-04-07T06:50:22;18.90;33.80
16287;DHT22;8251;53.568;10.018;2023-04-07T06:52:49;19.90;32.00
16287;DHT22;8251;53.568;10.018;2023-04-07T06:55:17;20.60;30.80
16287;DHT22;8251;53.568;10.018;2023-04-07T06:57:44;21.30;29.70
16287;DHT22;8251;53.568;10.018;2023-04-07T07:00:11;22.00;28.50
16287;DHT22;8251;53.568;10.018;2023-04-07T07:02:39;22.50;28.10
16287;DHT22;8251;53.568;10.018;2023-04-07T07:05:06;22.60;27.80
16287;DHT22;8251;53.568;10.018;2023-04-07T07:07:33;22.60;28.00
16287;DHT22;8251;53.568;10.018;2023-04-07T07:10:00;22.20;28.10
16287;DHT22;8251;53.568;10.018;2023-04-07T07:12:29;21.90;28.20
16287;DHT22;8251;53.568;10.018;2023-04-07T07:14:58;21.80;28.30
16287;DHT22;8251;53.568;10.018;2023-04-07T07:17:24;21.70;28.50
16287;DHT22;8251;53.568;10.018;2023-04-07T07:19:52;21.70;28.70
16287;DHT22;8251;53.568;10.018;2023-04-07T07:22:19;21.70;28.60
16287;DHT22;8251;53.568;10.018;2023-04-07T07:24:46;21.70;28.40
16287;DHT22;8251;53.568;10.018;2023-04-07T07:27:15;21.60;28.60
16287;DHT22;8251;53.568;10.018;2023-04-07T07:29:43;21.50;28.40
16287;DHT22;8251;53.568;10.018;2023-04-07T07:32:10;21.70;28.40
16287;DHT22;8251;53.568;10.018;2023-04-07T07:34:36;21.80;28.20
16287;DHT22;8251;53.568;10.018;2023-04-07T07:37:04;22.10;28.00
16287;DHT22;8251;53.568;10.018;2023-04-07T07:39:31;22.50;27.80
16287;DHT22;8251;53.568;10.018;2023-04-07T07:41:57;22.90;27.00
16287;DHT22;8251;53.568;10.018;2023-04-07T07:44:26;23.10;26.90
16287;DHT22;8251;53.568;10.018;2023-04-07T07:50:11;23.30;26.20
16287;DHT22;8251;53.568;10.018;2023-04-07T07:52:38;22.70;26.60
16287;DHT22;8251;53.568;10.018;2023-04-07T07:55:05;22.50;27.50
16287;DHT22;8251;53.568;10.018;2023-04-07T07:57:32;22.50;27.20
16287;DHT22;8251;53.568;10.018;2023-04-07T08:00:03;22.60;27.50
16287;DHT22;8251;53.568;10.018;2023-04-07T08:02:30;22.60;27.30
16287;DHT22;8251;53.568;10.018;2023-04-07T08:05:02;22.80;27.10
16287;DHT22;8251;53.568;10.018;2023-04-07T08:07:39;22.90;26.80
16287;DHT22;8251;53.568;10.018;2023-04-07T08:10:15;23.10;26.70
16287;DHT22;8251;53.568;10.018;2023-04-07T08:12:46;22.90;26.60
16287;DHT22;8251;53.568;10.018;2023-04-07T08:15:12;22.80;26.40
16287;DHT22;8251;53.568;10.018;2023-04-07T08:17:40;22.50;26.80
16287;DHT22;8251;53.568;10.018;2023-04-07T08:20:08;22.10;27.10
16287;DHT22;8251;53.568;10.018;2023-04-07T08:22:37;21.70;27.40
16287;DHT22;8251;53.568;10.018;2023-04-07T08:25:04;21.60;27.80
16287;DHT22;8251;53.568;10.018;2023-04-07T08:27:31;21.50;28.00
16287;DHT22;8251;53.568;10.018;2023-04-07T08:30:00;21.60;27.60
16287;DHT22;8251;53.568;10.018;2023-04-07T08:32:36;21.60;27.40
16287;DHT22;8251;53.568;10.018;2023-04-07T08:35:04;21.90;27.50
16287;DHT22;8251;53.568;10.018;2023-04-07T08:37:34;22.20;27.20
16287;DHT22;8251;53.568;10.018;2023-04-07T08:40:04;22.70;26.90
16287;DHT22;8251;53.568;10.018;2023-04-07T08:42:34;22.90;26.60
16287;DHT22;8251;53.568;10.018;2023-04-07T08:45:09;23.10;26.40
16287;DHT22;8251;53.568;10.018;2023-04-07T08:47:36;23.00;26.20
16287;DHT22;8251;53.568;10.018;2023-04-07T08:50:06;22.80;26.30
16287;DHT22;8251;53.568;10.018;2023-04-07T08:52:38;22.70;26.40
16287;DHT22;8251;53.568;10.018;2023-04-07T08:55:08;22.60;26.40
16287;DHT22;8251;53.568;10.018;2023-04-07T08:57:35;22.20;26.80
16287;DHT22;8251;53.568;10.018;2023-04-07T09:00:04;22.00;27.10
16287;DHT22;8251;53.568;10.018;2023-04-07T09:02:32;22.20;27.30
16287;DHT22;8251;53.568;10.018;2023-04-07T09:05:00;22.40;27.40
16287;DHT22;8251;53.568;10.018;2023-04-07T09:07:30;22.80;27.00
16287;DHT22;8251;53.568;10.018;2023-04-07T09:09:59;23.10;27.00
16287;DHT22;8251;53.568;10.018;2023-04-07T09:12:28;23.30;26.50
16287;DHT22;8251;53.568;10.018;2023-04-07T09:14:56;23.60;26.30
16287;DHT22;8251;53.568;10.018;2023-04-07T09:17:24;23.60;25.70
16287;DHT22;8251;53.568;10.018;2023-04-07T09:19:52;23.30;25.70
16287;DHT22;8251;53.568;10.018;2023-04-07T09:22:40;23.00;25.80
16287;DHT22;8251;53.568;10.018;2023-04-07T09:25:12;22.50;25.90
16287;DHT22;8251;53.568;10.018;2023-04-07T09:27:53;22.10;26.40
16287;DHT22;8251;53.568;10.018;2023-04-07T09:30:21;21.80;26.80
16287;DHT22;8251;53.568;10.018;2023-04-07T09:32:48;21.50;27.50
16287;DHT22;8251;53.568;10.018;2023-04-07T09:35:15;21.20;27.60
16287;DHT22;8251;53.568;10.018;2023-04-07T09:37:42;21.10;27.60
16287;DHT22;8251;53.568;10.018;2023-04-07T09:40:09;21.10;27.80
16287;DHT22;8251;53.568;10.018;2023-04-07T09:42:45;21.10;27.90
16287;DHT22;8251;53.568;10.018;2023-04-07T09:45:23;21.10;28.00
16287;DHT22;8251;53.568;10.018;2023-04-07T09:47:51;21.10;28.10
16287;DHT22;8251;53.568;10.018;2023-04-07T09:50:33;21.20;28.40
16287;DHT22;8251;53.568;10.018;2023-04-07T09:53:02;21.40;28.10
16287;DHT22;8251;53.568;10.018;2023-04-07T09:55:30;21.50;27.60
16287;DHT22;8251;53.568;10.018;2023-04-07T09:58:01;21.50;27.50
16287;DHT22;8251;53.568;10.018;2023-04-07T10:00:33;21.50;27.40
16287;DHT22;8251;53.568;10.018;2023-04-07T10:03:04;21.40;27.40
16287;DHT22;8251;53.568;10.018;2023-04-07T10:05:32;21.40;27.10
16287;DHT22;8251;53.568;10.018;2023-04-07T10:08:00;21.40;27.00
16287;DHT22;8251;53.568;10.018;2023-04-07T10:10:30;21.40;26.80
16287;DHT22;8251;53.568;10.018;2023-04-07T10:12:59;21.40;27.00
16287;DHT22;8251;53.568;10.018;2023-04-07T10:15:30;21.40;27.40
16287;DHT22;8251;53.568;10.018;2023-04-07T10:17:57;21.30;27.30
16287;DHT22;8251;53.568;10.018;2023-04-07T10:20:26;21.20;27.40
16287;DHT22;8251;53.568;10.018;2023-04-07T10:22:54;21.20;27.60
16287;DHT22;8251;53.568;10.018;2023-04-07T10:25:25;21.20;27.40
16287;DHT22;8251;53.568;10.018;2023-04-07T10:27:55;21.10;26.70
16287;DHT22;8251;53.568;10.018;2023-04-07T10:30:28;21.00;26.90
16287;DHT22;8251;53.568;10.018;2023-04-07T10:32:55;20.90;27.10
16287;DHT22;8251;53.568;10.018;2023-04-07T10:35:27;20.70;26.40
16287;DHT22;8251;53.568;10.018;2023-04-07T10:38:12;20.70;26.90
16287;DHT22;8251;53.568;10.018;2023-04-07T10:40:43;20.70;26.70
16287;DHT22;8251;53.568;10.018;2023-04-07T10:43:10;20.60;26.90
16287;DHT22;8251;53.568;10.018;2023-04-07T10:46:03;20.50;26.80
16287;DHT22;8251;53.568;10.018;2023-04-07T10:48:30;20.30;27.30
16287;DHT22;8251;53.568;10.018;2023-04-07T10:51:14;20.20;27.60
16287;DHT22;8251;53.568;10.018;2023-04-07T10:57:09;20.00;28.30
16287;DHT22;8251;53.568;10.018;2023-04-07T10:59:41;20.00;27.90
16287;DHT22;8251;53.568;10.018;2023-04-07T11:02:37;20.00;27.70
16287;DHT22;8251;53.568;10.018;2023-04-07T11:05:07;19.90;27.90
16287;DHT22;8251;53.568;10.018;2023-04-07T11:07:49;19.90;28.50
16287;DHT22;8251;53.568;10.018;2023-04-07T11:10:17;20.00;29.10
16287;DHT22;8251;53.568;10.018;2023-04-07T11:13:00;20.10;30.10
16287;DHT22;8251;53.568;10.018;2023-04-07T11:15:27;20.20;30.70
16287;DHT22;8251;53.568;10.018;2023-04-07T11:18:08;20.20;30.30
16287;DHT22;8251;53.568;10.018;2023-04-07T11:20:47;20.30;30.10
16287;DHT22;8251;53.568;10.018;2023-04-07T11:23:18;20.50;30.00
16287;DHT22;8251;53.568;10.018;2023-04-07T11:25:49;20.60;29.50
16287;DHT22;8251;53.568;10.018;2023-04-07T11:28:16;20.80;29.70
16287;DHT22;8251;53.568;10.018;2023-04-07T11:30:57;21.00;29.50
16287;DHT22;8251;53.568;10.018;2023-04-07T11:33:35;20.90;30.10
16287;DHT22;8251;53.568;10.018;2023-04-07T11:36:11;21.00;29.50
16287;DHT22;8251;53.568;10.018;2023-04-07T11:38:50;21.00;29.30
16287;DHT22;8251;53.568;10.018;2023-04-07T11:41:20;21.10;30.00
16287;DHT22;8251;53.568;10.018;2023-04-07T11:43:48;21.30;29.40
16287;DHT22;8251;53.568;10.018;2023-04-07T11:46:17;21.20;28.70
16287;DHT22;8251;53.568;10.018;2023-04-07T11:48:46;21.20;28.40
16287;DHT22;8251;53.568;10.018;2023-04-07T11:51:16;21.20;28.30
16287;DHT22;8251;53.568;10.018;2023-04-07T11:53:44;21.40;28.50
16287;DHT22;8251;53.568;10.018;2023-04-07T11:56:14;21.60;27.90
16287;DHT22;8251;53.568;10.018;2023-04-07T11:58:46;21.60;27.20
16287;DHT22;8251;53.568;10.018;2023-04-07T12:01:17;21.60;26.80
16287;DHT22;8251;53.568;10.018;2023-04-07T12:03:59;21.50;27.30
16287;DHT22;8251;53.568;10.018;2023-04-07T12:06:27;21.30;27.20
16287;DHT22;8251;53.568;10.018;2023-04-07T12:08:55;21.20;27.60
16287;DHT22;8251;53.568;10.018;2023-04-07T12:11:22;21.20;27.70
16287;DHT22;8251;53.568;10.018;2023-04-07T12:13:49;21.00;27.70
16287;DHT22;8251;53.568;10.018;2023-04-07T12:16:17;20.90;28.10
16287;DHT22;8251;53.568;10.018;2023-04-07T12:18:45;20.90;28.20
16287;DHT22;8251;53.568;10.018;2023-04-07T12:21:16;20.90;27.60
16287;DHT22;8251;53.568;10.018;2023-04-07T12:23:43;20.70;27.70
16287;DHT22;8251;53.568;10.018;2023-04-07T12:26:10;20.80;27.90
16287;DHT22;8251;53.568;10.018;2023-04-07T12:28:40;20.90;28.00
16287;DHT22;8251;53.568;10.018;2023-04-07T12:31:07;21.00;27.90
16287;DHT22;8251;53.568;10.018;2023-04-07T12:33:34;21.00;27.60
16287;DHT22;8251;53.568;10.018;2023-04-07T12:36:01;20.90;27.70
16287;DHT22;8251;53.568;10.018;2023-04-07T12:38:30;20.80;27.70
16287;DHT22;8251;53.568;10.018;2023-04-07T12:40:57;20.70;27.30
16287;DHT22;8251;53.568;10.018;2023-04-07T12:43:28;20.70;27.60
16287;DHT22;8251;53.568;10.018;2023-04-07T12:45:55;20.80;27.80
16287;DHT22;8251;53.568;10.018;2023-04-07T12:48:23;20.90;27.90
16287;DHT22;8251;53.568;10.018;2023-04-07T12:50:53;21.00;27.20
16287;DHT22;8251;53.568;10.018;2023-04-07T12:53:24;21.00;27.70
16287;DHT22;8251;53.568;10.018;2023-04-07T12:55:53;21.10;27.80
16287;DHT22;8251;53.568;10.018;2023-04-07T12:58:20;21.20;27.10
16287;DHT22;8251;53.568;10.018;2023-04-07T13:00:51;21.00;27.20
16287;DHT22;8251;53.568;10.018;2023-04-07T13:03:18;20.90;27.30
16287;DHT22;8251;53.568;10.018;2023-04-07T13:05:45;20.80;27.70
16287;DHT22;8251;53.568;10.018;2023-04-07T13:08:13;20.80;27.90
16287;DHT22;8251;53.568;10.018;2023-04-07T13:10:40;20.60;28.00
16287;DHT22;8251;53.568;10.018;2023-04-07T13:13:08;20.50;28.30
16287;DHT22;8251;53.568;10.018;2023-04-07T13:15:35;20.50;28.40
16287;DHT22;8251;53.568;10.018;2023-04-07T13:18:02;20.50;28.40
16287;DHT22;8251;53.568;10.018;2023-04-07T13:20:29;20.50;28.30
16287;DHT22;8251;53.568;10.018;2023-04-07T13:22:56;20.40;28.70
16287;DHT22;8251;53.568;10.018;2023-04-07T13:25:27;20.50;29.00
16287;DHT22;8251;53.568;10.018;2023-04-07T13:28:01;20.40;28.90
16287;DHT22;8251;53.568;10.018;2023-04-07T13:30:36;20.50;29.10
16287;DHT22;8251;53.568;10.018;2023-04-07T13:33:03;20.50;29.20
16287;DHT22;8251;53.568;10.018;2023-04-07T13:35:30;20.40;29.10
16287;DHT22;8251;53.568;10.018;2023-04-07T13:38:00;20.30;29.50
16287;DHT22;8251;53.568;10.018;2023-04-07T13:40:27;20.10;29.70
16287;DHT22;8251;53.568;10.018;2023-04-07T13:42:54;20.00;29.40
16287;DHT22;8251;53.568;10.018;2023-04-07T13:45:26;19.90;29.80
16287;DHT22;8251;53.568;10.018;2023-04-07T13:47:54;19.80;29.80
16287;DHT22;8251;53.568;10.018;2023-04-07T13:50:23;19.60;30.40
16287;DHT22;8251;53.568;10.018;2023-04-07T13:52:50;19.30;31.60
16287;DHT22;8251;53.568;10.018;2023-04-07T13:55:17;19.10;32.00
16287;DHT22;8251;53.568;10.018;2023-04-07T13:57:46;18.90;32.90
16287;DHT22;8251;53.568;10.018;2023-04-07T14:00:14;18.90;32.90
16287;DHT22;8251;53.568;10.018;2023-04-07T14:02:44;18.80;33.10
16287;DHT22;8251;53.568;10.018;2023-04-07T14:05:21;18.80;33.40
16287;DHT22;8251;53.568;10.018;2023-04-07T14:07:57;18.50;33.60
16287;DHT22;8251;53.568;10.018;2023-04-07T14:10:36;18.50;34.30
16287;DHT22;8251;53.568;10.018;2023-04-07T14:13:05;18.40;34.50
16287;DHT22;8251;53.568;10.018;2023-04-07T14:15:32;18.30;34.80
16287;DHT22;8251;53.568;10.018;2023-04-07T14:17:59;18.20;35.90
16287;DHT22;8251;53.568;10.018;2023-04-07T14:20:27;18.20;38.10
16287;DHT22;8251;53.568;10.018;2023-04-07T14:22:57;18.10;40.00
16287;DHT22;8251;53.568;10.018;2023-04-07T14:25:24;18.00;41.10
16287;DHT22;8251;53.568;10.018;2023-04-07T14:27:54;17.90;41.20
16287;DHT22;8251;53.568;10.018;2023-04-07T14:30:22;17.90;41.50
16287;DHT22;8251;53.568;10.018;2023-04-07T14:32:49;17.80;41.70
16287;DHT22;8251;53.568;10.018;2023-04-07T14:35:17;17.60;41.50
16287;DHT22;8251;53.568;10.018;2023-04-07T14:37:46;17.50;42.60
16287;DHT22;8251;53.568;10.018;2023-04-07T14:40:26;17.50;43.30
16287;DHT22;8251;53.568;10.018;2023-04-07T14:43:02;17.30;44.20
16287;DHT22;8251;53.568;10.018;2023-04-07T14:45:41;17.20;45.20
16287;DHT22;8251;53.568;10.018;2023-04-07T14:48:12;16.90;45.90
16287;DHT22;8251;53.568;10.018;2023-04-07T14:50:40;16.80;46.40
16287;DHT22;8251;53.568;10.018;2023-04-07T14:53:08;16.70;46.80
16287;DHT22;8251;53.568;10.018;2023-04-07T14:55:35;16.60;47.20
16287;DHT22;8251;53.568;10.018;2023-04-07T14:58:02;16.40;47.60
16287;DHT22;8251;53.568;10.018;2023-04-07T15:00:29;16.30;47.80
16287;DHT22;8251;53.568;10.018;2023-04-07T15:02:59;16.00;47.70
16287;DHT22;8251;53.568;10.018;2023-04-07T15:05:26;15.80;48.10
16287;DHT22;8251;53.568;10.018;2023-04-07T15:07:56;15.60;48.40
16287;DHT22;8251;53.568;10.018;2023-04-07T15:10:25;15.50;48.80
16287;DHT22;8251;53.568;10.018;2023-04-07T15:12:52;15.40;49.30
16287;DHT22;8251;53.568;10.018;2023-04-07T15:15:19;15.30;49.60
16287;DHT22;8251;53.568;10.018;2023-04-07T15:17:49;15.10;50.10
16287;DHT22;8251;53.568;10.018;2023-04-07T15:20:17;14.80;50.90
16287;DHT22;8251;53.568;10.018;2023-04-07T15:22:44;14.70;51.30
16287;DHT22;8251;53.568;10.018;2023-04-07T15:25:11;14.40;52.20
16287;DHT22;8251;53.568;10.018;2023-04-07T15:27:39;14.30;52.50
16287;DHT22;8251;53.568;10.018;2023-04-07T15:30:07;14.40;52.50
16287;DHT22;8251;53.568;10.018;2023-04-07T15:32:34;14.40;52.40
16287;DHT22;8251;53.568;10.018;2023-04-07T15:35:13;14.20;52.60
16287;DHT22;8251;53.568;10.018;2023-04-07T15:37:46;14.10;52.90
16287;DHT22;8251;53.568;10.018;2023-04-07T15:40:13;13.90;53.20
16287;DHT22;8251;53.568;10.018;2023-04-07T15:42:41;13.70;53.50
16287;DHT22;8251;53.568;10.018;2023-04-07T15:45:09;13.60;53.90
16287;DHT22;8251;53.568;10.018;2023-04-07T15:47:36;13.40;54.60
16287;DHT22;8251;53.568;10.018;2023-04-07T15:50:04;13.30;54.90
16287;DHT22;8251;53.568;10.018;2023-04-07T15:52:31;13.10;55.40
16287;DHT22;8251;53.568;10.018;2023-04-07T15:54:58;13.00;55.80
16287;DHT22;8251;53.568;10.018;2023-04-07T15:57:25;12.90;56.10